createdAt,value
2023-02-05T00:02:05.152Z,-5.51
2023-02-05T00:07:09.849Z,-5.42
2023-02-05T00:12:14.812Z,-5.42
2023-02-05T00:17:19.940Z,-5.27
2023-02-05T00:22:24.120Z,-5.09
2023-02-05T00:27:29.775Z,-4.91
2023-02-05T00:32:36.161Z,-4.69
2023-02-05T00:37:40.820Z,-4.49
2023-02-05T00:42:45.713Z,-4.32
2023-02-05T00:47:51.508Z,-4.18
2023-02-05T00:52:56.272Z,-4.07
2023-02-05T00:58:02.447Z,-3.96
2023-02-05T01:03:08.597Z,-3.87
2023-02-05T01:08:15.577Z,-3.72
2023-02-05T01:13:21.035Z,-3.60
2023-02-05T01:18:29.607Z,-3.48
2023-02-05T01:23:34.642Z,-3.33
2023-02-05T01:28:39.461Z,-3.24
2023-02-05T01:33:44.231Z,-3.13
2023-02-05T01:38:48.825Z,-2.98
2023-02-05T01:44:15.432Z,-2.80
2023-02-05T01:49:28.278Z,-2.63
2023-02-05T01:54:37.471Z,-2.45
2023-02-05T01:59:47.044Z,-2.30
2023-02-05T02:05:03.517Z,-2.16
2023-02-05T02:10:10.540Z,-2.02
2023-02-05T02:15:20.851Z,-1.87
2023-02-05T02:20:35.029Z,-1.70
2023-02-05T02:25:45.744Z,-1.53
2023-02-05T02:31:13.523Z,-1.36
2023-02-05T02:36:38.517Z,-1.16
2023-02-05T02:41:46.340Z,-0.99
2023-02-05T02:46:59.611Z,-0.79
2023-02-05T02:52:10.160Z,-0.62
2023-02-05T02:57:19.370Z,-0.47
2023-02-05T03:02:28.696Z,-0.32
2023-02-05T03:07:50.766Z,-0.13
2023-02-05T03:12:57.903Z,0.04
2023-02-05T03:18:03.853Z,0.18
2023-02-05T03:23:08.821Z,0.28
2023-02-05T03:28:15.550Z,0.41
2023-02-05T03:34:04.431Z,0.63
2023-02-05T03:39:49.189Z,0.79
2023-02-05T03:45:30.785Z,0.86
2023-02-05T03:50:43.466Z,0.96
2023-02-05T03:55:57.441Z,1.08
2023-02-05T04:01:02.842Z,1.21
2023-02-05T04:06:09.062Z,1.22
2023-02-05T04:11:15.374Z,1.25
2023-02-05T04:16:22.762Z,1.32
2023-02-05T04:21:28.321Z,1.43
2023-02-05T04:26:33.378Z,1.53
2023-02-05T04:31:42.318Z,1.67
2023-02-05T04:36:49.255Z,1.78
2023-02-05T04:41:54.572Z,1.84
2023-02-05T04:46:59.598Z,1.87
2023-02-05T04:52:04.684Z,1.93
2023-02-05T04:57:10.846Z,1.98
2023-02-05T05:02:16.381Z,1.95
2023-02-05T05:07:21.988Z,1.85
2023-02-05T05:12:27.634Z,1.82
2023-02-05T05:17:33.348Z,1.88
2023-02-05T05:22:38.936Z,1.98
2023-02-05T05:27:45.203Z,2.01
2023-02-05T05:32:50.928Z,2.11
2023-02-05T05:37:59.571Z,2.30
2023-02-05T05:43:24.923Z,2.46
2023-02-05T05:48:30.816Z,2.63
2023-02-05T05:53:36.548Z,2.81
2023-02-05T05:58:42.462Z,2.95
2023-02-05T06:03:48.071Z,3.10
2023-02-05T06:08:53.743Z,3.20
2023-02-05T06:13:59.366Z,3.29
2023-02-05T06:19:04.639Z,3.34
2023-02-05T06:24:09.838Z,3.39
2023-02-05T06:29:15.423Z,3.47
2023-02-05T06:34:20.852Z,3.48
2023-02-05T06:39:26.324Z,3.58
2023-02-05T06:44:32.165Z,3.63
2023-02-05T06:49:38.923Z,3.70
2023-02-05T06:54:46.153Z,3.76
2023-02-05T06:59:51.045Z,3.79
2023-02-05T07:04:56.529Z,3.85
2023-02-05T07:10:02.859Z,3.90
2023-02-05T07:15:10.909Z,3.93
2023-02-05T07:20:18.272Z,3.98
2023-02-05T07:25:24.339Z,3.95
2023-02-05T07:30:30.043Z,3.91
2023-02-05T07:35:38.816Z,3.85
2023-02-05T07:40:45.153Z,3.79
2023-02-05T07:45:57.740Z,3.76
2023-02-05T07:51:03.871Z,3.74
2023-02-05T07:56:09.657Z,3.69
2023-02-05T08:01:15.146Z,3.62
2023-02-05T08:06:20.269Z,3.58
2023-02-05T08:11:26.121Z,3.52
2023-02-05T08:16:31.539Z,3.44
2023-02-05T08:21:36.971Z,3.35
2023-02-05T08:26:42.635Z,3.23
2023-02-05T08:31:47.983Z,3.13
2023-02-05T08:36:53.659Z,2.99
2023-02-05T08:41:58.902Z,2.88
2023-02-05T08:47:04.408Z,2.76
2023-02-05T08:52:10.086Z,2.63
2023-02-05T08:57:18.127Z,2.55
2023-02-05T09:02:26.128Z,2.47
2023-02-05T09:07:33.720Z,2.36
2023-02-05T09:12:39.006Z,2.19
2023-02-05T09:17:44.549Z,2.10
2023-02-05T09:22:50.042Z,1.98
2023-02-05T09:27:55.496Z,1.88
2023-02-05T09:33:00.751Z,1.85
2023-02-05T09:38:07.110Z,1.73
2023-02-05T09:43:36.295Z,1.55
2023-02-05T09:49:22.440Z,1.37
2023-02-05T09:54:35.941Z,1.18
2023-02-05T09:59:47.196Z,1.01
2023-02-05T10:04:56.575Z,0.85
2023-02-05T10:10:17.483Z,0.71
2023-02-05T10:15:47.805Z,0.58
2023-02-05T10:21:29.959Z,0.45
2023-02-05T10:26:53.024Z,0.34
2023-02-05T10:32:21.787Z,0.26
2023-02-05T10:37:57.764Z,0.16
2023-02-05T10:43:05.010Z,0.05
2023-02-05T10:48:34.388Z,-0.07
2023-02-05T10:53:40.662Z,-0.15
2023-02-05T10:58:58.811Z,-0.19
2023-02-05T11:04:09.924Z,-0.25
2023-02-05T11:09:26.725Z,-0.30
2023-02-05T11:14:36.292Z,-0.34
2023-02-05T11:19:41.665Z,-0.37
2023-02-05T11:24:46.460Z,-0.38
2023-02-05T11:29:50.533Z,-0.40
2023-02-05T11:35:09.495Z,-0.44
2023-02-05T11:40:28.138Z,-0.47
2023-02-05T11:45:35.641Z,-0.51
2023-02-05T11:50:47.629Z,-0.52
2023-02-05T11:56:02.410Z,-0.56
2023-02-05T12:01:27.317Z,-0.60
2023-02-05T12:07:09.411Z,-0.67
2023-02-05T12:12:48.036Z,-0.73
2023-02-05T12:17:59.856Z,-0.79
2023-02-05T12:23:07.628Z,-0.91
2023-02-05T12:28:38.032Z,-0.97
2023-02-05T12:34:18.393Z,-1.03
2023-02-05T12:39:45.772Z,-1.10
2023-02-05T12:45:27.186Z,-1.20
2023-02-05T12:51:06.249Z,-1.31
2023-02-05T12:56:32.530Z,-1.45
2023-02-05T13:01:50.421Z,-1.60
2023-02-05T13:07:13.217Z,-1.71
2023-02-05T13:12:25.050Z,-1.82
2023-02-05T13:17:41.653Z,-1.95
2023-02-05T13:23:15.367Z,-2.05
2023-02-05T13:28:45.232Z,-2.16
2023-02-05T13:33:52.696Z,-2.18
2023-02-05T13:39:17.589Z,-2.01
2023-02-05T13:44:48.879Z,-1.92
2023-02-05T13:50:27.965Z,-1.87
2023-02-05T13:56:19.036Z,-1.92
2023-02-05T14:01:27.833Z,-1.94
2023-02-05T14:06:39.652Z,-1.93
2023-02-05T14:12:03.549Z,-1.94
2023-02-05T14:17:34.089Z,-1.97
2023-02-05T14:22:45.125Z,-2.06
2023-02-05T14:27:53.578Z,-2.16
2023-02-05T14:33:05.021Z,-2.29
2023-02-05T14:38:34.564Z,-2.39
2023-02-05T14:43:42.383Z,-2.49
2023-02-05T14:48:50.671Z,-2.61
2023-02-05T14:54:12.867Z,-2.74
2023-02-05T14:59:30.850Z,-2.83
2023-02-05T15:04:51.973Z,-2.87
2023-02-05T15:10:02.957Z,-2.84
2023-02-05T15:15:33.982Z,-2.79
2023-02-05T15:20:42.982Z,-2.81
2023-02-05T15:25:59.962Z,-2.79
2023-02-05T15:31:13.964Z,-2.89
2023-02-05T15:36:31.261Z,-2.99
2023-02-05T15:41:37.673Z,-3.06
2023-02-05T15:46:43.086Z,-3.21
2023-02-05T15:51:49.639Z,-3.28
2023-02-05T15:56:56.054Z,-3.42
2023-02-05T16:02:36.494Z,-3.44
2023-02-05T16:07:46.319Z,-3.51
2023-02-05T16:13:19.608Z,-3.57
2023-02-05T16:18:29.061Z,-3.61
2023-02-05T16:23:42.120Z,-3.61
2023-02-05T16:28:55.972Z,-3.65
2023-02-05T16:34:15.114Z,-3.66
2023-02-05T16:39:26.021Z,-3.60
2023-02-05T16:44:43.084Z,-3.66
2023-02-05T16:49:50.328Z,-3.77
2023-02-05T16:54:55.493Z,-3.83
2023-02-05T17:00:20.328Z,-3.90
2023-02-05T17:05:32.966Z,-3.95
2023-02-05T17:10:55.587Z,-3.95
2023-02-05T17:16:22.028Z,-3.76
2023-02-05T17:21:38.381Z,-3.71
2023-02-05T17:26:44.613Z,-3.71
2023-02-05T17:31:49.429Z,-3.78
2023-02-05T17:36:54.142Z,-3.87
2023-02-05T17:42:11.338Z,-3.85
2023-02-05T17:47:16.478Z,-3.90
2023-02-05T17:52:21.431Z,-3.94
2023-02-05T17:57:26.224Z,-4.02
2023-02-05T18:02:30.921Z,-4.13
2023-02-05T18:07:44.341Z,-4.21
2023-02-05T18:12:49.259Z,-4.29
2023-02-05T18:17:54.461Z,-4.35
2023-02-05T18:22:59.083Z,-4.34
2023-02-05T18:28:03.909Z,-4.29
2023-02-05T18:33:08.632Z,-4.29
2023-02-05T18:38:13.253Z,-4.27
2023-02-05T18:43:18.190Z,-4.18
2023-02-05T18:48:24.204Z,-4.07
2023-02-05T18:53:30.372Z,-4.02
2023-02-05T18:58:36.034Z,-4.04
2023-02-05T19:03:44.602Z,-4.06
2023-02-05T19:08:50.195Z,-4.16
2023-02-05T19:14:04.206Z,-4.26
2023-02-05T19:19:09.819Z,-4.31
2023-02-05T19:24:15.179Z,-4.34
2023-02-05T19:29:22.074Z,-4.32
2023-02-05T19:34:29.100Z,-4.28
2023-02-05T19:39:33.900Z,-4.23
2023-02-05T19:44:38.662Z,-4.14
2023-02-05T19:49:43.324Z,-4.00
2023-02-05T19:54:48.201Z,-3.82
2023-02-05T19:59:52.981Z,-3.66
2023-02-05T20:04:57.760Z,-3.66
2023-02-05T20:10:02.498Z,-3.72
2023-02-05T20:15:07.810Z,-3.76
2023-02-05T20:20:24.979Z,-3.80
2023-02-05T20:25:37.526Z,-3.83
2023-02-05T20:31:01.796Z,-3.83
2023-02-05T20:36:14.604Z,-3.72
2023-02-05T20:41:20.636Z,-3.70
2023-02-05T20:46:26.700Z,-3.66
2023-02-05T20:51:32.564Z,-3.61
2023-02-05T20:56:38.296Z,-3.56
2023-02-05T21:01:43.593Z,-3.58
2023-02-05T21:06:49.589Z,-3.65
2023-02-05T21:11:56.672Z,-3.68
2023-02-05T21:17:02.053Z,-3.69
2023-02-05T21:22:06.940Z,-3.77
2023-02-05T21:27:12.292Z,-3.81
2023-02-05T21:32:18.640Z,-3.88
2023-02-05T21:37:23.904Z,-3.86
2023-02-05T21:42:28.765Z,-3.85
2023-02-05T21:47:33.990Z,-3.85
2023-02-05T21:52:39.047Z,-3.88
2023-02-05T21:57:44.938Z,-3.93
2023-02-05T22:02:50.055Z,-3.97
2023-02-05T22:07:55.188Z,-4.07
2023-02-05T22:13:00.600Z,-4.11
2023-02-05T22:18:06.025Z,-4.15
2023-02-05T22:23:11.101Z,-4.23
2023-02-05T22:28:17.347Z,-4.31
2023-02-05T22:33:22.622Z,-4.44
2023-02-05T22:38:28.961Z,-4.49
2023-02-05T22:43:35.109Z,-4.51
2023-02-05T22:48:42.441Z,-4.48
2023-02-05T22:53:50.159Z,-4.51
2023-02-05T22:58:56.010Z,-4.54
2023-02-05T23:04:03.115Z,-4.55
2023-02-05T23:09:10.089Z,-4.59
2023-02-05T23:14:17.104Z,-4.65
2023-02-05T23:19:23.774Z,-4.76
2023-02-05T23:24:30.706Z,-4.80
2023-02-05T23:29:35.930Z,-4.81
2023-02-05T23:34:41.123Z,-4.84
2023-02-05T23:39:46.317Z,-4.86
2023-02-05T23:44:51.560Z,-4.89
2023-02-05T23:49:56.642Z,-4.91
2023-02-05T23:55:01.934Z,-4.87
